Date,TemperatureHighF,TemperatureAvgF,TemperatureLowF,DewpointHighF,DewpointAvgF,DewpointLowF,HumidityHigh,HumidityAvg,HumidityLow,PressureMaxIn,PressureMinIn,WindSpeedMaxMPH,WindSpeedAvgMPH,GustSpeedMaxMPH,PrecipitationSumIn
2013-1-1,27.7,22.1,13.1,23.8,19.2,11.1,94,89,78,30.39,30.20,14,5,14,0.01
2013-1-2,35.8,23.1,12.8,27.9,19.6,10.9,96,87,69,30.38,30.25,16,3,16,0.01
2013-1-3,35.7,25.7,17.9,26.0,21.0,15.8,94,83,63,30.55,30.38,12,4,12,0.01
2013-1-4,44.7,29.8,15.1,29.4,23.2,13.2,95,78,52,30.50,30.30,15,5,15,0.01
2013-1-5,48.9,37.8,30.4,33.8,29.2,22.3,87,72,50,30.32,30.14,18,8,18,0.00
2013-1-6,52.2,35.8,24.1,26.6,24.0,19.8,85,65,33,30.47,30.31,9,4,9,0.00
2013-1-7,54.0,39.3,27.6,28.8,25.6,21.0,77,59,37,30.31,30.06,21,9,21,0.00
2013-1-8,57.2,41.6,32.4,36.4,31.5,26.0,87,69,43,30.25,29.99,17,7,17,0.00
2013-1-9,53.1,40.7,28.3,36.6,31.3,25.3,91,71,50,30.46,30.25,14,5,14,0.00
2013-1-10,48.6,45.1,41.4,47.4,43.2,33.1,99,93,55,30.26,29.75,17,5,17,0.33
2013-1-11,58.9,50.5,40.4,49.5,43.8,23.4,99,80,33,29.86,29.56,22,12,22,0.00
2013-1-12,40.3,28.2,21.7,33.8,18.5,10.9,82,67,59,30.20,29.86,24,13,24,0.00
2013-1-13,28.7,20.2,13.2,11.8,9.3,6.8,79,64,41,30.45,30.17,21,8,21,0.00
2013-1-14,32.3,22.1,11.9,15.0,12.0,8.9,89,67,45,30.59,30.42,12,2,12,0.00
2013-1-15,35.3,24.6,15.4,16.3,14.1,11.5,87,66,41,30.45,30.27,10,2,10,0.00
2013-1-16,51.5,32.9,17.3,33.2,23.3,12.4,84,69,48,30.30,30.14,10,3,10,0.00
2013-1-17,55.4,40.4,29.5,34.4,30.0,25.8,87,68,42,30.55,30.31,13,5,13,0.00
2013-1-18,59.8,43.7,30.6,35.4,31.5,27.0,87,65,37,30.45,30.09,27,10,27,0.00
2013-1-19,62.6,44.9,30.8,34.7,29.7,25.1,90,60,26,30.27,30.05,14,4,14,0.00
2013-1-20,51.7,36.8,26.2,31.2,24.0,10.0,86,61,42,30.44,30.21,20,7,20,0.00
2013-1-21,37.8,26.8,16.5,16.9,14.2,10.1,82,60,41,30.50,30.34,15,3,15,0.00
2013-1-22,46.4,29.4,18.5,23.6,17.8,11.3,79,63,39,30.38,30.24,10,3,10,0.00
2013-1-23,55.0,35.7,19.2,34.6,24.4,16.2,90,66,43,30.39,30.19,20,3,20,0.00
2013-1-24,31.3,25.4,20.6,23.4,16.7,12.0,91,70,50,30.42,30.17,17,7,17,0.00
2013-1-25,50.3,35.6,21.8,28.1,24.9,19.4,94,68,41,30.34,30.22,9,2,9,0.00
2013-1-26,58.4,43.3,27.3,40.9,32.3,23.4,87,67,39,30.28,30.03,20,6,20,0.01
2013-1-27,68.0,52.8,43.3,57.8,49.3,39.1,99,89,65,30.04,29.72,26,11,26,0.01
2013-1-28,73.3,59.3,39.8,60.9,52.6,38.8,100,81,44,29.82,29.61,31,11,31,0.00
2013-1-29,64.3,43.4,34.4,60.7,39.8,32.6,94,87,70,29.67,29.51,20,10,21,0.02
2013-1-30,34.4,29.1,21.9,32.6,23.5,18.1,93,80,61,30.06,29.66,31,12,31,0.00
2013-1-31,30.2,24.7,18.1,23.6,16.5,8.4,84,71,54,30.54,30.03,28,8,28,0.00
2013-2-1,37.1,24.8,13.7,15.1,11.3,8.3,82,58,36,30.51,30.24,16,5,16,0.00
2013-2-2,56.4,41.8,27.5,36.2,27.3,14.4,87,58,38,30.34,30.23,21,7,21,0.00
2013-2-3,57.8,44.9,26.6,31.7,26.7,21.6,86,51,29,30.32,29.87,17,7,17,0.00
2013-2-4,55.5,44.8,31.1,33.7,30.9,26.2,83,60,40,30.00,29.82,18,6,18,0.00
2013-2-5,64.3,45.2,28.5,34.0,28.3,25.3,90,58,24,30.08,29.95,15,4,15,0.00
2013-2-6,58.5,49.3,36.2,54.8,42.9,29.9,97,79,56,30.07,29.84,21,7,21,0.00
2013-2-7,55.1,48.6,33.2,51.9,42.1,29.1,98,79,50,30.23,29.83,23,9,23,0.14
2013-2-8,46.2,35.2,27.5,36.1,30.8,25.9,98,84,66,30.38,30.19,10,4,10,0.00
2013-2-9,51.0,40.3,34.1,42.7,36.8,31.3,98,88,69,30.19,29.64,20,9,20,0.04
2013-2-10,51.4,43.5,34.2,45.7,33.0,25.2,98,69,45,30.09,29.52,34,14,34,0.02
2013-2-11,46.5,35.8,27.7,26.0,22.6,19.9,80,61,36,30.27,30.09,17,6,17,0.00
2013-2-12,41.8,35.4,28.3,32.4,25.7,22.0,94,69,49,30.23,30.05,7,3,7,0.00
2013-2-13,58.8,41.4,25.0,31.3,26.1,20.5,94,60,23,30.06,29.92,20,8,20,0.00
2013-2-14,50.6,41.4,34.7,34.2,28.9,20.3,78,61,46,30.33,29.95,20,8,20,0.00
2013-2-15,41.7,31.7,20.8,22.3,18.3,13.6,84,60,36,30.48,30.33,20,9,20,0.00
2013-2-16,48.7,32.6,16.8,30.0,20.2,11.4,83,62,38,30.44,30.05,22,6,22,0.00
2013-2-17,67.7,47.1,25.7,37.7,29.9,22.5,95,58,23,30.05,29.59,23,7,23,0.00
2013-2-18,54.3,46.0,27.9,41.2,29.7,19.2,76,54,39,30.17,29.46,38,16,38,0.00
2013-2-19,45.2,33.8,23.5,21.2,18.2,11.0,79,55,36,30.40,30.17,16,5,16,0.00
2013-2-20,32.7,29.2,25.1,29.9,20.4,7.2,94,73,37,30.31,30.06,17,9,17,0.07
2013-2-21,28.0,23.8,16.0,26.8,22.2,13.6,95,93,90,30.06,29.77,16,8,16,0.00
2013-2-22,27.9,18.2,10.2,20.4,14.0,7.6,91,84,71,30.23,29.99,15,6,15,0.24
2013-2-23,36.0,21.8,8.1,26.9,17.5,5.8,94,84,66,30.20,30.00,13,3,13,0.26
2013-2-24,46.6,35.9,24.4,35.5,28.9,21.1,90,76,60,30.00,29.82,13,6,13,0.23
2013-2-25,37.0,33.7,31.7,32.5,31.3,29.6,98,91,83,29.92,29.71,27,14,27,0.14
2013-2-26,34.1,30.7,27.0,32.4,29.1,25.6,98,94,84,29.98,29.75,21,10,21,0.36
2013-2-27,38.6,31.9,26.1,28.8,27.2,24.6,95,83,65,30.24,29.98,23,10,23,0.04
2013-2-28,36.4,31.8,26.0,29.6,26.7,22.4,88,81,75,30.30,30.23,20,9,20,0.00
2013-3-1,35.2,30.4,22.7,27.6,24.7,18.7,88,80,66,30.42,30.28,20,8,20,0.00
2013-3-2,42.4,29.5,16.5,26.7,21.7,14.3,93,74,48,30.45,30.21,8,3,8,0.00
2013-3-3,56.9,42.2,28.7,40.9,32.8,24.9,88,71,54,30.21,29.64,16,6,16,0.00
2013-3-4,46.9,42.2,36.3,38.7,35.7,32.2,92,78,67,30.11,29.58,26,10,27,0.04
2013-3-5,42.8,35.4,27.2,35.1,22.9,18.5,93,61,45,30.45,30.11,26,12,26,0.00
2013-3-6,46.9,34.6,22.1,28.6,22.9,18.5,90,64,43,30.49,30.23,12,4,12,0.00
2013-3-7,67.3,49.7,33.7,33.3,29.1,24.7,73,48,26,30.23,30.00,25,9,25,0.00
2013-3-8,60.9,52.5,45.8,48.6,40.9,31.8,80,65,50,30.09,29.88,23,9,23,0.00
2013-3-9,58.6,54.0,42.3,57.7,51.8,40.5,99,93,76,29.89,29.54,20,8,20,0.88
2013-3-10,42.3,34.0,29.4,40.9,30.5,23.4,95,87,78,30.04,29.58,33,18,33,0.01
2013-3-11,48.5,34.6,23.7,29.1,21.9,18.5,84,63,32,30.10,30.01,12,5,20,0.00
2013-3-12,53.2,44.1,32.3,37.5,29.5,24.5,83,58,37,30.40,30.07,21,6,21,0.00
2013-3-13,56.7,41.2,25.2,33.8,27.2,21.7,91,61,35,30.50,30.30,20,5,20,0.00
2013-3-14,78.5,54.7,36.0,47.3,38.0,28.6,81,57,25,30.30,30.07,15,6,15,0.00
2013-3-15,80.9,60.6,41.9,53.4,46.9,39.5,93,64,35,30.09,29.68,18,4,18,0.00
2013-3-16,60.7,47.9,37.9,49.3,38.9,30.7,84,71,59,30.00,29.68,25,12,25,0.00
2013-3-17,42.4,38.5,35.3,36.7,33.1,29.2,94,81,74,30.01,29.71,21,8,21,0.00
2013-3-18,58.0,45.5,37.7,38.0,30.6,21.0,95,62,25,30.07,29.78,22,8,22,0.00
2013-3-19,55.9,43.7,30.6,33.1,24.8,19.4,81,49,29,30.31,30.06,15,6,15,0.00
2013-3-20,49.1,39.0,29.8,31.1,22.8,17.0,93,56,31,30.46,30.06,16,5,16,0.00
2013-3-21,49.4,40.2,34.7,31.0,23.6,19.1,86,53,36,30.06,29.74,24,12,24,0.00
2013-3-22,49.6,38.5,31.5,37.1,32.5,29.7,94,80,57,30.00,29.87,13,7,13,0.00
2013-3-23,36.9,34.1,31.4,33.7,32.3,30.3,96,93,82,29.99,29.87,25,9,25,0.17
2013-3-24,34.6,29.2,23.9,30.3,24.6,22.0,97,84,60,30.23,29.96,30,16,30,0.20
2013-3-25,35.7,29.3,23.8,23.0,19.6,17.9,81,68,51,30.46,30.23,25,10,25,0.01
2013-3-26,49.4,34.0,17.0,29.1,22.3,14.8,94,65,43,30.51,30.26,15,4,15,0.00
2013-3-27,63.2,48.5,36.8,38.1,30.8,23.1,69,51,35,30.26,30.08,21,7,21,0.00
2013-3-28,68.1,52.0,34.9,49.4,40.5,31.5,89,67,46,30.18,30.06,12,3,12,0.00
2013-3-29,73.2,60.1,43.1,57.2,50.8,41.3,97,73,52,30.14,30.00,14,4,14,0.00
2013-3-30,74.0,60.7,51.4,60.2,54.9,50.1,97,83,52,30.00,29.83,21,5,21,0.45
2013-3-31,65.6,55.5,44.4,52.8,44.1,37.2,97,69,36,30.05,29.93,29,6,29,0.04
2013-4-1,49.6,41.1,36.6,40.5,33.9,27.1,90,76,59,30.30,29.95,21,8,21,0.17
2013-4-2,42.3,38.1,33.9,31.0,28.7,25.9,83,69,53,30.34,30.25,12,6,12,0.12
2013-4-3,42.1,39.3,38.2,35.1,31.6,26.6,87,74,57,30.36,30.27,13,5,13,0.01
2013-4-4,59.2,47.1,38.3,44.4,39.1,34.8,91,75,55,30.28,30.13,12,4,12,0.00
2013-4-5,65.9,52.4,37.6,49.3,42.9,35.3,94,72,51,30.17,29.82,25,9,25,0.00
2013-4-6,76.0,62.4,53.6,53.2,46.9,43.7,78,60,34,29.84,29.71,24,10,24,0.00
2013-4-7,71.8,58.5,48.3,60.7,52.7,42.6,94,82,61,29.84,29.63,20,5,20,0.00
2013-4-8,73.6,65.4,59.0,63.3,60.4,57.5,96,84,67,29.67,29.53,20,8,20,0.00
2013-4-9,74.3,58.2,32.6,64.9,53.4,31.0,95,85,57,29.96,29.51,30,14,30,0.46
2013-4-10,33.3,31.6,30.4,31.9,29.7,28.3,95,93,90,30.07,29.81,26,2,26,0.58
2013-4-11,54.4,38.8,28.1,35.3,30.6,25.8,91,75,43,30.02,29.76,20,4,20,0.05
2013-4-12,42.7,42.7,42.7,33.6,33.6,33.6,70,70,70,29.86,29.86,6,6,6,0.05
2013-4-13,42.7,42.7,42.7,33.6,33.6,33.6,70,70,70,29.86,29.86,6,6,6,0.05
2013-4-14,72.3,61.8,42.7,57.5,45.8,29.9,74,58,28,29.86,29.44,21,8,28,0.05
2013-4-15,56.7,52.5,47.1,41.3,33.4,28.2,58,48,35,29.95,29.70,23,10,23,0.00
2013-4-16,48.1,44.8,42.7,41.3,35.9,30.0,94,71,54,30.08,29.91,23,12,23,0.01
2013-4-17,46.3,43.7,41.1,45.8,42.9,39.8,98,97,94,30.01,29.71,20,8,20,0.33
2013-4-18,41.1,37.3,32.7,40.0,31.7,26.3,96,81,65,30.13,29.73,26,16,26,0.05
2013-4-19,64.0,45.3,30.1,36.3,29.6,24.9,83,58,32,30.17,30.04,25,11,25,0.00
2013-4-20,56.8,55.0,53.6,39.5,36.2,34.4,53,49,48,30.08,30.07,20,6,20,0.00
2013-4-21,69.5,60.0,49.9,47.3,42.9,38.5,70,54,39,30.15,30.03,25,9,25,0.00
2013-4-22,72.5,56.5,38.0,58.2,47.3,36.1,95,72,56,30.10,29.78,33,10,33,0.54
2013-4-23,37.9,33.9,31.6,36.3,30.8,27.0,95,88,72,30.33,29.98,28,16,28,0.56
2013-4-24,59.7,43.4,26.3,36.6,31.4,24.8,96,67,32,30.37,30.24,15,5,15,0.02
2013-4-25,69.5,53.1,32.3,45.4,37.8,29.8,96,60,32,30.34,30.02,22,7,22,0.00
2013-4-26,57.8,52.3,50.6,50.0,47.2,37.0,96,84,46,30.15,30.05,14,6,14,0.34
2013-4-27,65.7,54.3,48.6,55.6,50.5,48.0,98,88,64,30.16,30.00,12,5,12,0.02
2013-4-28,82.3,62.8,45.6,61.8,53.3,44.8,99,75,37,30.02,29.74,18,7,18,0.00
2013-4-29,87.0,71.2,55.1,64.2,57.8,52.0,97,66,40,29.75,29.55,21,9,21,0.00
2013-4-30,84.7,72.9,61.3,64.4,58.1,52.5,84,61,42,29.71,29.60,30,13,30,0.00
2013-5-1,72.6,58.1,39.5,64.0,51.1,35.5,90,78,61,30.25,29.70,29,12,29,0.08
2013-5-2,39.4,37.0,34.9,37.1,35.2,33.2,95,93,88,30.51,30.22,29,18,29,0.64
2013-5-3,58.0,45.8,35.1,34.5,31.7,28.9,84,61,34,30.45,30.03,20,6,24,0.00
2013-5-4,49.3,43.9,39.3,41.3,35.9,29.5,88,74,59,30.14,29.94,29,13,29,0.00
2013-5-5,61.1,50.3,42.6,52.4,45.7,40.2,95,85,69,30.21,30.09,16,7,16,0.01
2013-5-6,69.4,53.9,41.7,54.6,48.4,40.9,99,83,56,30.18,30.03,12,3,12,0.00
2013-5-7,73.2,60.7,47.0,60.2,52.3,45.7,99,76,53,30.08,29.89,13,4,13,0.00
2013-5-8,79.8,65.8,57.0,64.9,58.3,50.3,96,78,56,30.00,29.72,25,7,25,0.76
2013-5-9,74.7,64.8,55.4,61.1,56.8,54.0,96,77,57,29.97,29.76,24,6,24,0.07
2013-5-10,71.1,60.9,53.5,56.1,53.2,49.4,95,78,49,30.08,29.96,16,7,16,0.00
2013-5-11,68.2,58.1,46.6,52.9,44.1,34.6,98,65,33,30.27,30.08,22,7,22,0.00
2013-5-12,71.0,56.3,40.2,48.6,42.6,33.7,97,64,40,30.29,30.07,18,4,18,0.00
2013-5-13,85.4,67.6,47.8,61.9,52.7,43.1,87,61,38,30.10,29.91,14,4,14,0.00
2013-5-14,90.7,75.2,61.0,60.0,54.1,47.1,75,50,28,29.91,29.77,20,8,20,0.00
2013-5-15,81.1,70.0,61.5,66.6,60.5,55.5,92,72,55,29.83,29.75,20,7,20,0.00
2013-5-16,77.8,68.8,61.4,64.6,61.8,58.7,97,80,56,29.83,29.75,10,3,10,0.00
2013-5-17,82.7,70.3,57.8,68.3,62.9,57.0,99,79,57,29.88,29.78,9,3,9,0.00
2013-5-18,84.8,75.7,69.3,74.6,69.7,58.3,95,82,55,29.81,29.55,20,5,20,0.00
2013-5-19,82.3,68.9,61.3,72.1,63.9,58.9,97,85,66,29.73,29.45,21,5,21,1.02
2013-5-20,80.5,68.1,55.0,62.2,57.7,53.9,98,72,43,29.76,29.60,12,3,12,0.00
2013-5-21,73.8,64.0,53.8,55.0,50.8,48.3,83,64,42,29.83,29.70,14,5,14,0.00
2013-5-22,76.8,64.1,51.7,57.4,52.3,47.8,88,67,45,29.92,29.77,17,5,17,0.00
2013-5-23,73.3,63.6,55.9,60.3,54.6,50.7,87,73,56,30.14,29.92,20,5,20,0.00
2013-5-24,77.1,67.7,57.5,68.2,61.0,53.6,88,79,69,30.18,30.01,14,5,14,0.00
2013-5-25,82.7,73.5,65.3,69.1,66.1,62.9,93,79,60,30.07,29.89,22,8,22,0.00
2013-5-26,82.8,73.1,65.8,72.4,67.7,63.1,93,84,68,29.95,29.79,21,8,21,0.00
2013-5-27,82.0,75.0,70.7,72.8,69.5,67.8,93,84,70,29.79,29.54,29,11,29,0.00
2013-5-28,84.3,75.8,70.8,75.3,69.8,67.2,91,82,66,29.69,29.53,29,10,29,0.00
2013-5-29,79.9,72.1,61.3,70.4,66.8,59.9,95,84,70,29.67,29.49,30,12,30,0.25
2013-5-30,80.3,67.9,58.2,67.2,61.9,57.4,98,83,53,29.74,29.49,20,5,20,2.33
2013-5-31,82.1,73.5,66.4,70.5,66.1,57.6,97,79,50,29.71,29.57,18,4,18,0.01
2013-6-1,72.7,65.6,58.0,63.4,54.7,49.8,92,69,57,30.03,29.67,18,8,18,0.01
2013-6-2,71.4,61.1,50.8,54.1,49.5,47.4,88,67,44,30.13,29.98,17,6,17,0.00
2013-6-3,80.3,67.0,53.6,64.1,57.0,50.9,93,72,47,30.00,29.73,18,5,18,0.00
2013-6-4,86.0,74.8,65.9,70.8,65.9,60.8,90,75,56,29.87,29.67,22,4,22,0.00
2013-6-5,72.2,68.2,61.7,67.0,63.4,56.1,97,85,72,29.98,29.77,23,6,23,0.24
2013-6-6,75.2,65.7,56.4,57.2,54.5,50.9,92,70,45,30.00,29.93,17,6,17,0.00
2013-6-7,81.7,67.3,52.9,62.1,56.2,51.6,97,71,43,30.00,29.85,8,1,8,0.00
2013-6-8,83.4,70.7,61.1,64.7,59.9,56.8,94,71,45,29.87,29.63,25,7,25,0.17
2013-6-9,88.5,72.8,58.0,65.2,59.8,53.1,99,69,35,29.88,29.77,20,3,20,0.00
2013-6-10,97.8,79.7,62.0,72.8,66.2,60.0,96,67,38,29.83,29.70,15,4,15,0.00
2013-6-11,97.6,83.5,69.4,69.3,63.3,56.9,77,54,29,29.80,29.67,26,10,26,0.00
2013-6-12,99.7,85.5,73.2,72.6,69.5,64.3,83,62,34,29.87,29.70,20,7,20,0.00
2013-6-13,88.3,77.2,65.0,71.2,63.2,55.7,74,62,52,30.01,29.87,17,4,17,0.00
2013-6-14,98.6,83.8,69.9,74.6,67.8,61.5,89,62,30,29.91,29.75,18,6,18,0.00
2013-6-15,89.2,79.6,73.2,70.2,67.6,65.0,87,68,46,29.89,29.77,23,5,23,0.00
2013-6-16,92.3,78.9,69.4,71.5,67.1,62.6,93,69,44,29.94,29.79,16,3,16,0.00
2013-6-17,82.5,73.7,65.2,70.1,66.5,63.3,97,80,58,29.97,29.72,18,4,18,0.36
2013-6-18,89.9,76.9,63.6,69.7,64.1,56.1,98,69,36,30.00,29.88,17,2,17,0.00
2013-6-19,86.0,75.0,64.2,71.1,66.5,60.8,98,77,54,29.98,29.83,18,5,18,0.08
2013-6-20,94.3,81.9,71.4,74.5,70.7,67.5,90,71,49,29.89,29.75,26,9,26,0.00
2013-6-21,95.8,84.5,75.6,73.3,70.0,67.7,78,63,43,29.86,29.76,25,10,25,0.00
2013-6-22,93.8,83.3,74.4,70.0,67.5,61.8,82,61,41,29.85,29.72,26,11,26,0.00
2013-6-23,94.6,83.1,75.5,70.5,67.9,64.1,77,62,39,29.80,29.71,25,10,25,0.00
2013-6-24,92.8,82.7,75.2,72.5,68.4,66.7,85,63,44,29.86,29.69,31,10,31,0.10
2013-6-25,95.8,83.8,73.8,73.6,70.8,67.5,90,66,46,29.83,29.60,26,11,26,0.01
2013-6-26,101.2,86.9,73.5,76.2,71.4,66.7,87,63,34,29.82,29.68,8,3,8,0.00
2013-6-27,100.9,83.8,68.1,77.6,73.2,64.7,97,73,43,29.95,29.68,67,4,67,0.79
2013-6-28,94.3,79.3,69.0,71.4,68.8,64.0,93,74,39,29.99,29.86,15,6,15,0.00
2013-6-29,93.2,85.9,73.2,67.4,62.4,53.4,51,46,43,29.89,29.86,12,8,12,0.00
2013-6-30,82.3,72.0,60.6,61.5,56.1,52.1,86,59,37,30.02,29.89,20,6,20,0.00
2013-7-1,82.8,70.5,57.0,58.7,53.3,48.1,89,58,33,30.12,30.02,15,5,15,0.00
2013-7-2,85.2,71.4,57.3,59.1,52.2,43.9,82,55,25,30.11,30.01,16,4,16,0.00
2013-7-3,86.9,70.7,58.6,58.0,53.7,49.8,86,59,30,30.09,29.92,9,2,13,0.00
2013-7-4,90.8,74.5,59.5,61.1,56.5,52.9,83,56,30,29.98,29.84,10,2,10,0.00
2013-7-5,91.5,78.9,65.9,64.1,60.2,57.6,83,56,33,29.90,29.77,26,7,26,0.00
2013-7-6,82.9,75.6,69.4,71.1,65.6,61.2,89,72,58,29.87,29.77,3,2,15,0.06
2013-7-7,99.2,84.1,70.5,68.2,65.2,62.5,85,56,31,29.91,29.80,22,5,22,0.15
2013-7-8,101.0,86.7,74.9,69.5,66.8,63.8,73,54,30,29.96,29.84,16,7,16,0.00
2013-7-9,106.6,90.2,76.4,71.8,68.1,63.3,79,52,26,29.92,29.75,16,7,16,0.01
2013-7-10,100.2,86.6,70.7,73.3,68.2,64.5,88,58,32,29.92,29.83,15,3,15,0.01
2013-7-11,91.9,82.2,70.0,75.6,68.2,63.6,91,64,49,29.99,29.83,11,4,20,0.61
2013-7-12,99.5,86.1,73.5,72.8,68.3,63.9,75,57,38,29.91,29.80,13,4,14,0.00
2013-7-13,98.5,87.0,74.8,75.1,70.4,67.7,83,60,41,29.90,29.78,16,5,16,0.00
2013-7-14,84.1,73.7,67.6,73.2,68.9,65.1,98,86,59,30.03,29.82,21,2,21,0.38
2013-7-15,78.5,69.6,62.2,71.0,65.7,61.5,99,88,72,30.14,30.02,12,2,13,0.30
2013-7-16,90.6,76.6,63.4,71.0,66.8,62.2,98,74,46,30.23,30.13,16,2,16,0.01
2013-7-17,92.2,79.2,67.7,74.5,69.6,66.7,98,74,47,30.25,30.12,9,2,9,0.00
2013-7-18,92.7,80.3,67.9,73.1,68.8,65.4,99,71,44,30.15,29.94,18,4,18,0.00
2013-7-19,97.0,83.4,69.9,71.2,67.9,65.9,90,63,38,29.97,29.80,14,4,14,0.00
2013-7-20,98.0,81.0,71.1,71.8,68.5,64.2,95,69,35,29.85,29.72,21,5,21,0.38
2013-7-21,89.8,77.8,68.6,76.8,71.6,67.9,99,82,60,29.84,29.73,12,3,12,0.19
2013-7-22,84.1,76.6,71.2,75.2,71.2,63.1,97,84,59,29.85,29.70,12,2,12,0.29
2013-7-23,91.9,81.5,67.6,75.3,69.9,62.2,97,69,53,29.89,29.69,32,2,32,1.07
2013-7-24,88.5,76.7,68.4,73.7,68.1,61.5,99,78,44,29.99,29.81,13,3,13,0.01
2013-7-25,87.3,76.8,67.5,74.6,69.6,64.5,93,79,59,30.01,29.93,6,0,6,0.00
2013-7-26,85.2,74.7,66.0,72.4,67.4,62.5,99,80,50,30.03,29.92,14,1,14,1.56
2013-7-27,80.0,70.5,61.5,65.1,59.8,56.5,93,70,56,30.08,29.92,7,0,7,0.16
2013-7-28,64.1,62.5,60.2,63.9,61.9,59.3,100,98,93,30.03,29.93,4,0,4,1.51
2013-7-29,83.0,71.6,62.3,76.8,68.5,61.3,98,90,78,29.97,29.80,12,0,12,0.20
2013-7-30,80.6,74.4,70.8,75.3,71.5,69.8,99,91,78,30.04,29.81,8,0,8,0.01
2013-7-31,86.1,75.5,66.0,73.0,69.6,65.7,100,83,59,30.11,29.99,6,0,6,0.00
2013-8-1,88.6,77.6,66.0,72.8,69.1,65.4,100,77,51,30.07,29.86,3,0,4,0.00
2013-8-2,91.3,80.3,69.9,80.5,74.5,67.1,99,83,67,29.87,29.73,7,0,7,0.68
2013-8-3,85.7,78.0,70.3,78.0,73.5,68.8,97,86,71,29.98,29.81,6,0,6,0.40
2013-8-4,76.8,73.3,70.3,74.8,72.3,69.7,100,97,90,30.05,29.93,8,0,8,1.87
2013-8-5,91.3,80.3,70.1,79.7,74.4,68.7,97,83,61,29.93,29.71,5,0,5,0.11
2013-8-6,91.8,80.2,69.6,79.0,73.2,68.1,98,81,59,29.84,29.68,2,0,1,0.20
2013-8-7,88.3,78.0,70.2,76.7,71.9,68.4,99,83,63,29.86,29.70,6,0,6,0.04
2013-8-8,81.2,73.7,67.8,72.5,70.0,66.8,100,89,70,29.92,29.76,2,0,2,1.58
2013-8-9,73.8,68.7,63.2,70.0,65.7,60.7,99,90,75,30.10,29.89,5,0,5,1.14
2013-8-10,84.7,72.2,61.5,70.4,65.5,61.1,100,81,56,30.16,30.02,4,0,4,0.00
2013-8-11,86.2,75.9,64.9,74.2,69.7,64.3,100,83,61,30.09,29.94,2,0,2,0.00
2013-8-12,88.0,77.3,68.1,76.1,71.9,67.4,99,85,62,30.01,29.89,5,0,5,0.40
2013-8-13,82.3,71.6,65.9,73.5,69.1,65.5,99,92,68,30.08,29.93,2,0,2,0.94
2013-8-14,82.5,70.7,60.7,68.3,63.9,60.7,100,81,55,30.14,30.00,0,0,0,0.00
2013-8-15,75.5,69.8,63.2,67.4,64.5,61.0,99,84,76,30.06,29.91,4,0,4,0.50
2013-8-16,80.9,69.5,60.9,70.6,64.9,60.6,100,87,63,30.09,30.00,5,1,5,0.01
2013-8-17,80.5,71.1,61.8,68.8,62.8,59.8,94,76,59,30.13,30.02,7,2,7,0.00
2013-8-18,82.9,72.0,60.9,68.3,63.1,57.6,94,75,56,30.10,29.98,12,2,12,0.00
2013-8-19,87.6,75.6,64.4,72.5,67.2,62.7,95,77,57,30.04,29.91,15,3,15,0.00
2013-8-20,91.2,77.9,66.5,71.7,67.7,64.3,93,73,49,30.00,29.89,12,4,12,0.00
2013-8-21,93.0,79.1,67.6,70.5,66.9,64.4,90,69,42,29.99,29.92,12,4,12,0.00
2013-8-22,90.8,79.1,66.7,73.3,68.9,65.2,96,72,46,30.01,29.92,12,3,12,0.01
2013-8-23,93.3,80.8,71.0,76.1,71.7,68.3,93,75,50,29.98,29.87,10,3,10,0.00
2013-8-24,92.4,81.5,71.5,75.5,72.2,69.7,94,75,55,30.03,29.94,12,4,12,0.00
2013-8-25,93.8,81.9,71.4,74.7,71.4,68.1,93,73,44,30.10,30.01,12,4,12,0.00
2013-8-26,93.8,81.9,72.1,72.6,70.0,67.4,93,70,43,30.09,29.98,15,5,15,0.00
2013-8-27,93.5,80.6,69.5,70.7,67.1,62.5,92,67,36,30.01,29.91,16,4,16,0.00
2013-8-28,91.1,79.3,67.6,75.9,70.9,66.4,98,77,54,29.98,29.90,12,2,12,0.00
2013-8-29,99.2,84.0,72.0,72.3,68.8,64.3,90,64,33,29.96,29.86,13,3,13,0.00
2013-8-30,103.2,84.5,70.9,73.5,68.1,58.7,89,62,25,29.90,29.75,10,2,10,0.00
2013-8-31,102.8,84.3,70.0,75.3,69.8,66.0,90,65,31,29.81,29.67,15,1,15,0.00
2013-9-1,89.6,79.6,73.5,75.2,69.1,61.3,83,71,61,29.93,29.70,12,4,12,0.00
2013-9-2,86.9,72.7,59.9,64.7,60.9,57.6,94,70,40,30.04,29.93,10,2,10,0.00
2013-9-3,89.9,73.1,58.1,65.5,61.5,57.0,99,71,36,30.06,29.95,8,1,8,0.00
2013-9-4,91.5,74.5,59.2,65.5,60.7,55.9,99,67,31,30.10,30.00,10,1,10,0.00
2013-9-5,92.4,79.2,64.9,69.6,65.0,61.9,93,64,39,30.11,30.00,8,1,8,0.00
2013-9-6,96.2,81.3,67.4,70.0,66.6,63.7,90,63,39,30.04,29.88,12,3,12,0.00
2013-9-7,101.3,83.7,69.8,71.5,67.3,64.2,87,61,31,29.92,29.81,12,3,12,0.00
2013-9-8,100.0,84.0,69.0,70.5,65.3,61.1,86,57,30,29.86,29.75,14,4,14,0.00
2013-9-9,95.6,82.2,68.9,68.8,61.9,55.2,78,53,26,29.87,29.79,20,6,20,0.00
2013-9-10,94.4,81.3,69.8,68.3,62.8,59.0,78,55,33,30.01,29.86,21,6,21,0.00
2013-9-11,94.8,80.0,67.2,69.5,64.0,59.3,84,60,36,30.06,29.94,12,3,12,0.00
2013-9-12,79.0,74.2,71.8,71.9,69.3,66.1,93,85,65,30.10,30.02,12,4,12,0.01
2013-9-13,78.2,71.3,66.7,69.7,54.4,50.6,93,56,43,30.11,29.98,12,4,12,0.00
2013-9-14,85.4,72.6,62.3,65.7,58.2,50.6,77,61,48,30.00,29.85,13,3,13,0.00
2013-9-15,93.5,75.6,66.1,69.3,64.7,60.5,95,71,40,30.04,29.85,23,5,23,0.08
2013-9-16,74.2,68.0,65.0,69.8,66.2,63.3,98,94,85,30.13,30.02,14,4,14,0.12
2013-9-17,84.2,72.8,65.7,71.9,68.3,65.4,100,87,61,30.10,29.86,14,4,14,0.05
2013-9-18,93.3,79.2,68.9,71.1,67.1,62.2,92,69,40,29.89,29.72,29,8,29,0.00
2013-9-19,91.8,76.1,65.9,70.8,67.1,64.9,99,76,47,29.93,29.69,25,6,29,0.98
2013-9-20,74.8,64.6,55.6,65.8,55.3,50.5,98,74,45,30.06,29.91,16,6,16,0.00
2013-9-21,82.4,64.6,50.7,59.8,55.0,50.2,100,75,41,30.02,29.87,9,2,9,0.00
2013-9-22,79.1,65.1,51.7,58.0,53.4,50.3,99,70,39,29.92,29.77,12,3,12,0.00
2013-9-23,79.6,67.7,55.8,57.4,54.1,50.8,85,63,44,29.80,29.67,20,7,20,0.00
2013-9-24,77.9,67.6,58.7,59.4,55.2,51.8,89,65,48,29.88,29.75,25,7,25,0.00
2013-9-25,83.5,66.8,51.9,63.1,57.0,51.1,99,74,40,29.90,29.71,12,2,12,0.00
2013-9-26,91.7,76.3,64.4,63.5,59.8,56.0,80,59,35,29.75,29.67,23,7,23,0.00
2013-9-27,87.4,76.5,66.5,67.5,61.9,58.9,79,62,44,29.82,29.70,20,8,20,0.00
2013-9-28,76.6,63.9,49.7,69.3,54.0,44.3,95,73,40,30.09,29.69,20,8,20,0.61
2013-9-29,75.6,58.0,44.2,52.0,47.5,43.4,99,73,34,30.11,29.92,8,1,8,0.00
2013-9-30,80.9,63.1,47.5,57.5,52.9,46.7,99,73,41,29.92,29.77,13,3,13,0.00
2013-10-1,84.6,69.1,52.9,67.0,59.7,51.0,95,74,52,29.89,29.80,13,3,13,0.00
2013-10-2,83.4,72.9,64.5,71.9,67.7,62.8,99,85,66,29.91,29.77,16,5,16,0.00
2013-10-3,87.9,77.1,70.4,71.0,68.6,67.2,92,76,55,29.78,29.60,20,10,20,0.00
2013-10-4,89.4,74.3,56.0,70.7,64.1,36.6,93,72,48,29.95,29.62,26,10,26,0.22
2013-10-5,64.6,53.5,46.8,40.2,36.5,33.6,76,54,34,30.11,29.95,23,9,23,0.00
2013-10-6,69.1,54.5,45.2,43.7,35.6,27.2,74,52,22,30.07,29.99,20,7,20,0.00
2013-10-7,76.3,56.1,41.1,45.6,40.5,36.1,85,60,27,30.21,30.06,9,2,9,0.00
2013-10-8,77.0,60.3,45.4,51.5,46.7,41.6,88,64,36,30.08,29.93,18,5,18,0.00
2013-10-9,81.0,65.1,53.5,56.5,52.7,49.1,85,67,37,30.00,29.90,20,7,20,0.00
2013-10-10,81.3,67.9,56.3,62.5,57.8,53.1,90,72,51,29.96,29.74,16,7,16,0.00
2013-10-11,82.6,68.9,58.0,63.1,53.2,37.4,87,62,21,29.87,29.67,17,8,17,0.00
2013-10-12,72.0,59.5,48.8,47.4,42.9,38.2,79,56,31,30.23,29.87,12,5,12,0.00
2013-10-13,69.9,57.4,41.0,52.5,45.1,38.9,93,66,42,30.33,30.18,15,3,15,0.00
2013-10-14,63.9,61.4,57.2,63.3,56.6,47.4,98,85,58,30.18,29.80,22,6,22,0.47
2013-10-15,60.5,52.0,44.7,56.6,42.9,38.5,98,73,48,30.16,29.89,21,9,21,0.08
2013-10-16,55.5,46.3,38.7,42.5,39.0,36.0,95,77,55,30.19,30.06,14,4,14,0.00
2013-10-17,68.0,50.3,37.9,48.4,40.9,32.6,99,75,29,30.08,29.95,14,3,14,0.00
2013-10-18,48.5,39.2,32.1,40.6,36.1,31.3,98,89,74,30.21,30.06,15,5,15,0.05
2013-10-19,66.8,46.3,31.1,45.2,38.2,30.3,99,77,40,30.19,29.95,17,4,17,0.00
2013-10-20,72.0,54.5,39.2,51.5,43.8,36.5,92,70,42,29.96,29.80,15,4,15,0.00
2013-10-21,61.9,50.7,43.3,45.8,39.9,35.2,90,68,43,30.15,29.96,12,5,12,0.00
2013-10-22,69.2,55.7,46.1,46.6,42.7,40.0,86,64,40,30.11,30.00,21,6,21,0.00
2013-10-23,67.9,50.5,36.1,47.9,41.7,34.8,98,74,43,30.18,30.01,12,3,12,0.00
2013-10-24,54.4,45.7,36.0,43.1,36.1,32.1,88,70,45,30.45,30.14,18,5,18,0.00
2013-10-25,59.9,44.7,31.0,40.8,34.1,29.3,96,70,35,30.49,30.17,17,4,17,0.00
2013-10-26,65.2,51.8,37.7,51.4,40.0,28.1,89,68,26,30.19,30.11,17,4,17,0.00
2013-10-27,67.3,46.1,29.1,41.0,34.1,28.0,98,68,32,30.19,29.95,12,3,12,0.00
2013-10-28,65.4,55.7,42.0,58.3,51.7,34.6,98,87,68,30.07,29.97,14,4,14,0.00
2013-10-29,70.1,62.5,57.3,68.2,61.1,55.0,100,95,84,29.97,29.86,16,4,16,0.57
2013-10-30,72.4,59.1,50.4,69.5,58.4,49.9,100,98,82,29.94,29.68,26,6,26,0.40
2013-10-31,64.0,52.8,46.5,51.7,46.4,40.8,99,81,46,29.75,29.57,21,7,21,0.08
2013-11-1,62.6,51.6,41.6,44.9,40.3,37.4,89,67,45,30.12,29.74,21,6,21,0.00
2013-11-2,60.1,47.4,39.3,38.5,35.1,29.9,83,65,35,30.31,30.12,14,4,14,0.00
2013-11-3,61.8,50.8,41.3,42.9,38.4,33.9,78,63,46,30.16,29.82,28,10,28,0.00
2013-11-4,63.1,54.4,48.4,53.4,46.3,42.8,89,75,51,30.05,29.80,20,5,20,0.00
2013-11-5,60.5,54.7,40.0,60.2,53.5,37.9,100,96,89,30.08,29.82,23,8,23,0.47
2013-11-6,47.1,39.6,34.1,39.1,35.4,33.1,97,85,64,30.39,30.08,24,7,24,0.00
2013-11-7,60.2,44.0,31.9,41.7,36.6,30.9,99,78,44,30.50,30.32,10,2,10,0.00
2013-11-8,65.6,51.2,37.3,39.7,37.3,34.1,96,63,33,30.32,29.89,34,10,35,0.00
2013-11-9,63.9,50.0,37.8,47.1,40.9,35.8,95,73,44,30.30,30.00,12,2,12,0.00
2013-11-10,62.8,51.2,39.2,50.5,44.0,37.1,98,78,53,30.39,30.24,14,3,14,0.00
2013-11-11,57.4,47.4,29.1,53.2,43.8,21.0,95,87,72,30.67,30.17,26,8,26,0.00
2013-11-12,36.0,27.3,20.5,21.0,16.1,11.5,89,64,37,30.94,30.67,18,7,18,0.00
2013-11-13,50.6,35.3,19.5,28.3,21.5,17.0,91,60,40,30.75,30.22,20,9,20,0.00
2013-11-14,56.8,43.8,35.1,34.2,30.0,21.3,74,59,42,30.22,29.96,22,9,22,0.00
2013-11-15,60.9,48.0,33.1,49.0,40.4,30.3,96,76,52,29.98,29.67,20,7,20,0.00
2013-11-16,76.7,63.6,52.4,56.7,53.8,46.4,93,72,41,29.67,29.36,26,13,26,0.00
2013-11-17,66.0,56.8,46.6,46.4,31.1,14.8,71,41,16,30.10,29.36,31,12,31,0.00
2013-11-18,61.6,45.4,29.6,32.5,26.6,20.5,90,52,22,30.31,30.07,12,2,12,0.00
2013-11-19,60.2,50.1,41.5,38.0,31.6,28.4,69,50,36,30.24,29.89,26,10,26,0.00
2013-11-20,59.9,54.3,49.4,50.2,41.5,29.7,78,63,45,29.91,29.78,21,9,21,0.00
2013-11-21,53.1,37.5,25.4,52.3,34.9,20.9,97,90,78,30.55,29.88,26,12,26,0.21
2013-11-22,29.2,26.1,23.3,20.8,18.5,15.7,84,73,57,30.74,30.55,29,12,29,0.00
2013-11-23,35.3,29.9,21.8,21.6,17.3,12.6,70,59,53,30.83,30.69,12,5,20,0.00
2013-11-24,28.7,23.9,19.5,16.5,13.1,10.7,74,63,48,30.79,30.38,7,2,15,0.00
2013-11-25,36.6,30.3,24.7,28.7,23.3,15.8,93,75,62,30.38,30.25,6,2,13,0.00
2013-11-26,39.4,31.2,22.9,27.9,21.0,11.8,92,68,41,30.52,30.27,21,6,25,0.00
2013-11-27,39.1,26.6,13.3,21.5,15.8,9.5,86,65,44,30.53,30.25,10,3,15,0.00
2013-11-28,48.5,35.2,22.4,30.6,25.2,19.6,91,68,47,30.49,30.23,7,3,13,0.00
2013-11-29,55.2,38.7,22.5,34.8,28.0,19.2,91,68,45,30.49,30.21,10,3,17,0.00
2013-11-30,60.7,42.2,29.6,39.5,33.6,27.8,96,74,43,30.22,30.10,8,2,16,0.00
2013-12-1,62.9,41.4,27.7,43.4,34.4,26.4,98,79,44,30.15,29.90,5,1,7,0.00
2013-12-2,58.8,40.7,30.7,43.7,36.7,30.0,99,87,56,29.90,29.63,8,2,12,0.00
2013-12-3,60.9,43.4,31.2,48.3,40.2,30.4,100,90,59,29.64,29.50,6,1,9,0.00
2013-12-4,44.3,30.6,22.6,43.8,26.2,11.2,99,84,59,30.17,29.54,17,7,24,0.00
2013-12-5,22.6,18.3,16.1,11.9,7.1,3.8,79,61,53,30.50,30.17,17,8,26,0.00
2013-12-6,21.2,15.7,10.3,10.4,2.6,-1.7,79,56,41,30.73,30.43,14,7,21,0.00
2013-12-7,22.9,15.5,6.2,8.5,3.0,-0.6,75,58,42,30.78,30.37,9,4,12,0.00
2013-12-8,24.0,21.6,18.2,21.5,17.5,8.9,92,85,60,30.37,30.03,10,3,15,0.00
2013-12-9,18.0,14.8,12.6,13.7,7.5,3.7,89,73,59,30.51,30.30,10,3,15,0.00
2013-12-10,43.8,25.0,9.4,23.3,12.9,3.7,80,62,30,30.48,30.23,10,3,15,0.00
2013-12-11,31.4,24.2,14.6,22.2,13.3,3.1,90,65,37,30.70,30.30,12,4,18,0.00
2013-12-12,47.1,29.8,13.3,25.8,17.8,6.4,79,62,40,30.67,30.18,11,5,18,0.00
2013-12-13,46.5,39.1,30.9,39.5,34.2,25.6,94,83,73,30.18,29.79,14,4,21,0.00
2013-12-14,38.6,29.4,20.9,32.9,22.7,17.6,87,77,55,30.31,29.96,18,6,25,0.00
2013-12-15,63.1,39.8,19.4,29.5,23.6,17.1,95,59,24,30.29,30.08,11,3,20,0.00
2013-12-16,63.8,43.2,28.1,30.5,26.0,22.0,80,54,27,30.17,30.06,10,1,15,0.00
2013-12-17,55.7,38.0,26.7,33.8,25.2,20.8,89,64,31,30.38,30.17,12,2,20,0.00
2013-12-18,65.9,47.4,27.7,38.7,32.3,20.9,79,58,35,30.28,29.79,13,5,23,0.00
2013-12-19,60.0,51.5,34.9,49.7,45.0,29.0,94,79,66,29.79,29.58,16,5,22,0.00
2013-12-20,34.9,22.0,17.5,29.0,17.3,13.7,92,82,75,30.05,29.73,19,7,27,0.00
2013-12-21,27.5,24.7,23.1,26.1,21.2,16.4,95,86,75,29.94,29.65,9,4,16,0.00
2013-12-22,25.6,20.1,9.1,22.7,17.0,6.7,94,88,77,30.46,29.89,10,4,17,0.04
2013-12-23,19.1,14.6,7.3,14.7,10.9,5.1,93,85,75,30.73,30.46,6,2,12,0.00
2013-12-24,31.2,23.3,17.0,30.4,21.7,14.7,97,93,87,30.65,30.23,9,4,18,0.00
2013-12-25,40.8,31.1,22.1,32.6,27.6,20.6,96,87,69,30.48,30.36,9,2,12,0.28
2013-12-26,44.7,31.0,19.6,33.9,26.5,18.3,98,84,65,30.43,30.28,9,2,16,0.14
2013-12-27,50.0,33.1,20.4,34.0,27.5,19.1,97,82,47,30.43,30.26,6,1,12,0.03
2013-12-28,53.7,39.8,28.9,39.3,33.1,26.7,94,78,56,30.27,29.90,10,3,15,0.01
2013-12-29,40.6,20.6,10.2,35.8,11.0,2.0,86,67,46,30.42,30.00,21,9,32,0.00
2013-12-30,36.4,22.4,8.2,21.5,12.7,4.8,91,68,45,30.42,30.31,10,2,16,0.00
2013-12-31,53.3,36.6,20.0,30.3,25.5,17.4,93,67,38,30.41,30.09,14,5,24,0.00
2014-1-1,36.7,25.5,13.0,29.1,20.6,8.7,92,82,71,30.45,29.97,16,7,26,0.00
2014-1-2,32.3,19.6,5.9,23.4,14.0,2.9,90,79,66,30.58,30.45,12,3,17,0.00